Time;durP1;ratioP1;P1;durP2;ratioP2;P2;SDS_P1;SDS_P2;PMS_P1;PMS_P2;Temp;Humidity;BMP_temperature;BMP_pressure;BME280_temperature;BME280_humidity;BME280_pressure;Samples;Min_cycle;Max_cycle;Signal;HPM_P1;HPM_P2
2023/07/13 00:02:26;;;;;;;9.15;2.58;;;18.80;97.40;;;;;;4996542;28;20018;-88
2023/07/13 00:04:58;;;;;;;10.68;2.40;;;18.70;97.40;;;;;;4980624;28;20026;-88
2023/07/13 00:07:24;;;;;;;6.30;1.80;;;18.70;97.40;;;;;;4980362;28;20465;-88
2023/07/13 00:09:49;;;;;;;7.93;2.47;;;18.70;97.50;;;;;;4980478;28;20049;-88
2023/07/13 00:12:28;;;;;;;9.60;2.97;;;18.70;97.50;;;;;;4996463;28;20030;-88
2023/07/13 00:14:57;;;;;;;9.23;2.65;;;18.60;97.60;;;;;;4996379;28;20025;-88
2023/07/13 00:17:23;;;;;;;6.25;2.08;;;18.60;97.30;;;;;;4996393;28;20037;-88
2023/07/13 00:19:49;;;;;;;7.65;2.20;;;18.60;97.60;;;;;;4980456;28;20490;-88
2023/07/13 00:22:14;;;;;;;7.07;2.20;;;18.60;97.60;;;;;;4996378;28;20463;-88
2023/07/13 00:24:41;;;;;;;12.20;2.95;;;18.50;97.70;;;;;;4997016;28;20030;-88
2023/07/13 00:27:09;;;;;;;6.20;2.10;;;18.50;97.70;;;;;;4982347;28;20030;-88
2023/07/13 00:29:35;;;;;;;10.32;2.67;;;18.50;97.90;;;;;;4982546;28;20420;-88
2023/07/13 00:32:01;;;;;;;10.85;2.00;;;18.50;97.90;;;;;;4981338;28;20501;-88
2023/07/13 00:34:28;;;;;;;8.48;2.45;;;18.50;98.00;;;;;;4964155;28;20413;-88
2023/07/13 00:37:07;;;;;;;7.65;2.40;;;18.50;97.80;;;;;;4980114;28;20030;-88
2023/07/13 00:39:34;;;;;;;9.90;2.30;;;18.40;97.80;;;;;;4996221;28;20033;-88
2023/07/13 00:42:00;;;;;;;8.77;1.98;;;18.40;97.80;;;;;;5014101;28;20034;-93
2023/07/13 00:44:27;;;;;;;9.35;2.22;;;18.30;97.80;;;;;;4965985;28;20033;-93
2023/07/13 00:46:53;;;;;;;6.53;2.00;;;18.30;97.80;;;;;;4964397;28;20061;-87
2023/07/13 00:49:22;;;;;;;11.70;2.40;;;18.20;98.00;;;;;;4979674;28;20467;-87
2023/07/13 00:51:50;;;;;;;9.30;2.15;;;18.20;98.00;;;;;;5013481;28;20381;-87
2023/07/13 00:54:24;;;;;;;10.63;2.58;;;18.20;98.00;;;;;;4996114;28;20014;-87
2023/07/13 00:56:53;;;;;;;8.95;1.92;;;18.10;98.10;;;;;;4997299;28;20485;-87
2023/07/13 00:59:20;;;;;;;7.18;2.15;;;18.10;98.20;;;;;;4999839;28;20018;-87
2023/07/13 01:02:11;;;;;;;8.32;1.92;;;18.10;98.40;;;;;;4983694;28;20069;-87
2023/07/13 01:04:38;;;;;;;10.18;2.20;;;18.10;98.30;;;;;;4983564;28;20084;-87
2023/07/13 01:07:04;;;;;;;9.15;2.33;;;18.10;98.20;;;;;;4983794;28;20037;-87
2023/07/13 01:09:30;;;;;;;9.55;2.20;;;18.10;98.40;;;;;;4983328;28;20088;-87
2023/07/13 01:11:56;;;;;;;8.57;2.40;;;18.10;98.40;;;;;;4967171;28;20026;-87
2023/07/13 01:14:24;;;;;;;9.73;2.22;;;18.10;98.60;;;;;;4983442;28;20026;-87
2023/07/13 01:16:50;;;;;;;6.82;2.28;;;18.00;98.60;;;;;;4983953;28;20093;-88
2023/07/13 01:19:35;;;;;;;7.18;2.15;;;18.00;98.70;;;;;;5000178;28;20069;-87
2023/07/13 01:22:08;;;;;;;8.60;1.83;;;18.00;98.70;;;;;;5001073;28;20033;-89
2023/07/13 01:24:35;;;;;;;8.52;2.10;;;18.00;98.60;;;;;;5000481;28;20026;-88
2023/07/13 01:27:01;;;;;;;8.05;2.15;;;18.00;98.60;;;;;;4999565;28;20022;-87
2023/07/13 01:29:27;;;;;;;12.18;2.28;;;18.00;98.80;;;;;;4999183;28;20040;-87
2023/07/13 01:31:52;;;;;;;10.57;2.15;;;17.90;98.70;;;;;;4998817;28;20392;-87
2023/07/13 01:34:18;;;;;;;7.85;2.92;;;17.90;98.80;;;;;;4983171;28;20030;-87
2023/07/13 01:36:44;;;;;;;7.35;2.85;;;17.90;98.70;;;;;;4966775;28;20029;-87
2023/07/13 01:39:09;;;;;;;12.13;2.38;;;17.80;98.90;;;;;;4966728;28;20064;-87
2023/07/13 01:41:35;;;;;;;14.20;2.20;;;17.80;99.00;;;;;;4982633;28;20133;-87
2023/07/13 01:44:01;;;;;;;9.60;2.60;;;17.80;99.00;;;;;;4966626;28;20061;-87
2023/07/13 01:46:26;;;;;;;6.97;2.15;;;17.70;99.00;;;;;;4966490;28;20029;-87
2023/07/13 01:48:52;;;;;;;9.50;2.20;;;17.70;99.20;;;;;;4983209;28;20041;-93
2023/07/13 01:51:19;;;;;;;7.47;2.35;;;17.60;99.30;;;;;;4983955;28;20476;-92
2023/07/13 01:53:45;;;;;;;8.35;2.33;;;17.60;99.40;;;;;;4984079;28;20362;-93
2023/07/13 01:56:10;;;;;;;6.63;2.47;;;17.50;99.40;;;;;;4967587;28;20142;-93
2023/07/13 01:58:36;;;;;;;13.80;3.20;;;17.50;99.60;;;;;;4983722;28;20030;-93
2023/07/13 02:01:02;;;;;;;8.63;2.53;;;17.50;99.60;;;;;;4983695;28;20034;-93
2023/07/13 02:03:27;;;;;;;13.82;3.13;;;17.40;99.70;;;;;;4967430;28;20022;-93
2023/07/13 02:05:53;;;;;;;12.30;2.15;;;17.40;99.80;;;;;;4983226;28;20473;-87
2023/07/13 02:08:19;;;;;;;8.32;2.92;;;17.30;99.90;;;;;;4982823;28;20026;-87
2023/07/13 02:10:44;;;;;;;10.65;2.35;;;17.20;99.90;;;;;;4998431;28;20030;-86
2023/07/13 02:13:10;;;;;;;11.63;3.08;;;17.20;99.90;;;;;;4966230;28;20472;-87
2023/07/13 02:15:39;;;;;;;10.98;2.70;;;17.20;99.90;;;;;;4966185;28;20072;-87
2023/07/13 02:18:06;;;;;;;6.55;2.33;;;17.20;99.90;;;;;;4982159;28;20050;-87
2023/07/13 02:20:32;;;;;;;10.43;2.95;;;17.20;99.90;;;;;;4981899;28;20365;-87
2023/07/13 02:22:57;;;;;;;7.25;2.90;;;17.20;99.90;;;;;;4999251;28;20053;-93
2023/07/13 02:25:24;;;;;;;11.27;2.55;;;17.20;99.90;;;;;;4967165;28;20026;-93
2023/07/13 02:27:50;;;;;;;19.73;3.38;;;17.20;99.90;;;;;;4983444;28;20022;-93
2023/07/13 02:30:16;;;;;;;8.75;2.70;;;17.20;99.90;;;;;;4983037;28;20370;-92
2023/07/13 02:32:43;;;;;;;8.40;2.65;;;17.20;99.90;;;;;;4967273;28;20018;-93
2023/07/13 02:35:09;;;;;;;8.73;3.20;;;17.20;99.90;;;;;;4967386;28;20038;-93
2023/07/13 02:37:34;;;;;;;13.48;3.72;;;17.20;99.90;;;;;;4983424;28;20430;-93
2023/07/13 02:40:00;;;;;;;10.30;3.15;;;17.10;99.90;;;;;;4982535;28;20287;-88
2023/07/13 02:42:26;;;;;;;9.52;2.92;;;17.10;99.90;;;;;;4993669;28;20058;-88
2023/07/13 02:44:51;;;;;;;10.85;3.53;;;17.10;99.90;;;;;;4970867;28;20134;-88
2023/07/13 02:47:17;;;;;;;7.05;2.75;;;17.00;99.90;;;;;;5004845;28;20033;-88
2023/07/13 02:49:44;;;;;;;9.63;3.00;;;17.10;99.90;;;;;;4970594;28;20073;-87
2023/07/13 02:52:28;;;;;;;9.70;3.05;;;17.00;99.90;;;;;;4966106;28;20034;-88
2023/07/13 02:55:09;;;;;;;13.45;3.63;;;17.00;99.90;;;;;;4966278;28;20085;-88
2023/07/13 02:57:35;;;;;;;11.10;3.20;;;17.10;99.90;;;;;;4965671;28;20117;-88
2023/07/13 03:00:07;;;;;;;9.07;3.55;;;17.00;99.90;;;;;;4997807;28;20061;-89
2023/07/13 03:02:34;;;;;;;9.23;3.08;;;17.00;99.90;;;;;;4965443;28;20121;-88
2023/07/13 03:05:00;;;;;;;11.55;3.42;;;17.00;99.90;;;;;;5015007;28;20026;-88
2023/07/13 03:07:26;;;;;;;11.85;2.92;;;17.00;99.90;;;;;;4981811;28;20362;-88
2023/07/13 03:09:58;;;;;;;13.65;3.83;;;16.90;99.90;;;;;;4981552;28;20081;-88
2023/07/13 03:12:24;;;;;;;12.85;3.55;;;16.90;99.90;;;;;;4981742;28;20034;-92
2023/07/13 03:14:50;;;;;;;10.18;3.13;;;16.90;99.90;;;;;;4998315;28;20022;-93
2023/07/13 03:17:16;;;;;;;11.35;3.47;;;16.90;99.90;;;;;;4998126;28;20022;-93
2023/07/13 03:19:42;;;;;;;10.25;3.70;;;16.90;99.90;;;;;;4965606;28;20073;-93
2023/07/13 03:22:07;;;;;;;9.77;3.17;;;16.90;99.90;;;;;;4981814;28;20121;-93
2023/07/13 03:24:34;;;;;;;9.10;3.22;;;17.00;99.90;;;;;;4981755;28;20041;-93
2023/07/13 03:27:02;;;;;;;15.05;3.67;;;16.90;99.90;;;;;;4982094;28;20022;-92
2023/07/13 03:29:27;;;;;;;12.55;4.10;;;16.90;99.90;;;;;;4997994;28;20029;-90
2023/07/13 03:31:53;;;;;;;12.95;3.20;;;16.90;99.90;;;;;;4965332;28;20153;-90
2023/07/13 03:34:19;;;;;;;11.57;3.55;;;16.90;99.90;;;;;;4981292;28;20029;-89
2023/07/13 03:36:44;;;;;;;11.00;3.45;;;16.90;99.90;;;;;;4965203;28;20026;-90
2023/07/13 03:39:10;;;;;;;10.07;3.40;;;16.90;99.90;;;;;;4981062;28;20145;-89
2023/07/13 03:41:36;;;;;;;13.85;3.67;;;16.90;99.90;;;;;;4981637;28;20072;-88
2023/07/13 03:44:02;;;;;;;12.68;3.60;;;16.90;99.90;;;;;;4996886;28;20033;-87
2023/07/13 03:46:28;;;;;;;12.00;3.72;;;16.80;99.90;;;;;;4996824;28;20022;-87
2023/07/13 03:48:54;;;;;;;11.48;3.50;;;16.80;99.90;;;;;;4980685;28;20161;-87
2023/07/13 03:51:20;;;;;;;14.75;3.92;;;16.70;99.90;;;;;;4980579;28;20405;-87
2023/07/13 03:53:47;;;;;;;13.43;4.72;;;16.70;99.90;;;;;;4980809;28;20037;-88
2023/07/13 03:56:15;;;;;;;14.65;3.88;;;16.70;99.90;;;;;;4996700;28;20030;-87
2023/07/13 03:58:42;;;;;;;9.45;3.95;;;16.70;99.90;;;;;;5014745;28;20472;-93
2023/07/13 04:01:15;;;;;;;11.50;4.10;;;16.70;99.90;;;;;;4965777;28;20045;-93
2023/07/13 04:03:56;;;;;;;16.58;3.92;;;16.70;99.90;;;;;;4997077;28;20036;-88
2023/07/13 04:06:29;;;;;;;;;;;16.70;99.90;;;;;;4964729;28;20037;-88
2023/07/13 04:09:00;;;;;;;16.05;4.43;;;16.70;99.90;;;;;;4996742;28;19905;-88
2023/07/13 04:11:29;;;;;;;20.20;5.10;;;16.60;99.90;;;;;;5013959;28;20029;-88
2023/07/13 04:13:55;;;;;;;15.30;4.40;;;16.60;99.90;;;;;;4996824;28;20014;-88
2023/07/13 04:16:22;;;;;;;15.55;4.70;;;16.60;99.90;;;;;;4996696;28;20034;-88
2023/07/13 04:18:49;;;;;;;14.55;4.28;;;16.60;99.90;;;;;;4981053;28;20073;-87
2023/07/13 04:21:15;;;;;;;15.65;3.97;;;16.60;99.90;;;;;;5006622;28;20041;-87
2023/07/13 04:23:41;;;;;;;9.45;4.40;;;16.60;99.90;;;;;;4984814;28;20038;-87
2023/07/13 04:26:07;;;;;;;14.52;4.50;;;16.60;99.90;;;;;;4996638;28;20087;-87
2023/07/13 04:28:34;;;;;;;13.80;4.13;;;16.60;99.90;;;;;;4980606;28;20489;-87
2023/07/13 04:31:00;;;;;;;16.55;4.85;;;16.60;99.90;;;;;;4979293;28;20496;-87
2023/07/13 04:33:29;;;;;;;15.27;4.57;;;16.60;99.90;;;;;;5013984;28;20026;-87
2023/07/13 04:36:01;;;;;;;15.50;5.25;;;16.50;99.90;;;;;;4996464;28;20528;-89
2023/07/13 04:38:30;;;;;;;13.30;4.40;;;16.60;99.90;;;;;;4981149;28;20026;-88
2023/07/13 04:41:01;;;;;;;19.33;5.22;;;16.60;99.90;;;;;;4996664;28;20032;-88
2023/07/13 04:43:27;;;;;;;14.73;5.40;;;16.60;99.90;;;;;;5013847;28;20049;-88
2023/07/13 04:45:53;;;;;;;14.93;4.60;;;16.60;99.90;;;;;;4996697;28;20022;-89
2023/07/13 04:48:19;;;;;;;12.15;4.88;;;16.60;99.90;;;;;;4996675;28;20030;-88
2023/07/13 04:50:46;;;;;;;17.42;4.88;;;16.60;99.90;;;;;;5013637;28;20026;-89
2023/07/13 04:53:12;;;;;;;16.20;4.88;;;16.60;99.90;;;;;;4994724;28;20018;-87
2023/07/13 04:55:38;;;;;;;20.10;5.53;;;16.60;99.90;;;;;;4976766;28;20026;-87
2023/07/13 04:58:05;;;;;;;17.60;5.50;;;16.60;99.90;;;;;;4976812;28;20093;-87
2023/07/13 05:00:31;;;;;;;15.15;4.93;;;16.50;99.90;;;;;;4966163;28;20035;-88
2023/07/13 05:02:58;;;;;;;21.95;5.72;;;16.50;99.90;;;;;;4977198;28;20022;-89
2023/07/13 05:05:25;;;;;;;15.05;5.70;;;16.50;99.90;;;;;;4974239;28;20125;-86
2023/07/13 05:07:53;;;;;;;19.17;5.28;;;16.50;99.90;;;;;;4974624;28;20050;-87
2023/07/13 05:10:21;;;;;;;17.52;5.53;;;16.50;99.90;;;;;;4941164;28;20031;-87
2023/07/13 05:12:46;;;;;;;22.20;6.47;;;16.50;99.90;;;;;;4957495;28;20035;-87
2023/07/13 05:15:32;;;;;;;12.95;5.53;;;16.50;99.90;;;;;;4941186;28;20079;-90
2023/07/13 05:17:58;;;;;;;15.20;5.88;;;16.60;99.90;;;;;;4985309;28;20109;-90
2023/07/13 05:20:24;;;;;;;16.45;5.93;;;16.60;99.90;;;;;;4979997;28;20153;-89
2023/07/13 05:22:50;;;;;;;20.77;6.18;;;16.60;99.90;;;;;;4995841;28;20034;-90
2023/07/13 05:25:16;;;;;;;25.02;6.95;;;16.50;99.90;;;;;;4980439;28;20030;-92
2023/07/13 05:27:41;;;;;;;19.65;7.13;;;16.50;99.90;;;;;;4964676;28;20089;-93
2023/07/13 05:30:10;;;;;;;15.93;6.28;;;16.50;99.90;;;;;;4964657;28;20022;-93
2023/07/13 05:32:36;;;;;;;20.98;7.03;;;16.50;99.90;;;;;;4981959;28;20030;-93
2023/07/13 05:35:02;;;;;;;19.63;5.60;;;16.50;99.90;;;;;;4981125;28;20381;-93
2023/07/13 05:37:28;;;;;;;22.20;7.22;;;16.60;99.90;;;;;;4964925;28;20025;-93
2023/07/13 05:39:53;;;;;;;24.17;8.05;;;16.60;99.90;;;;;;4980710;28;20465;-94
2023/07/13 05:42:19;;;;;;;21.23;7.80;;;16.60;99.90;;;;;;4997265;28;20030;-87
2023/07/13 05:44:45;;;;;;;17.50;6.93;;;16.60;99.90;;;;;;4983256;28;20026;-87
2023/07/13 05:47:11;;;;;;;19.73;7.28;;;16.60;99.90;;;;;;5000375;28;20029;-87
2023/07/13 05:49:36;;;;;;;17.95;6.97;;;16.70;99.90;;;;;;4984515;28;20034;-88
2023/07/13 05:52:02;;;;;;;22.17;7.68;;;16.70;99.90;;;;;;4999281;28;20089;-88
2023/07/13 05:54:28;;;;;;;25.13;7.25;;;16.70;99.90;;;;;;4967664;28;20025;-88
2023/07/13 05:56:54;;;;;;;18.40;7.03;;;16.80;99.90;;;;;;4983221;28;20496;-88
2023/07/13 05:59:19;;;;;;;16.90;7.38;;;16.80;99.90;;;;;;4967840;28;20064;-94
2023/07/13 06:01:45;;;;;;;21.80;8.50;;;16.80;99.90;;;;;;4984604;28;20022;-94
2023/07/13 06:04:11;;;;;;;29.50;9.00;;;16.80;99.90;;;;;;4984579;28;20045;-94
2023/07/13 06:06:36;;;;;;;24.77;8.93;;;16.90;99.90;;;;;;4968517;28;20030;-94
2023/07/13 06:09:02;;;;;;;30.13;10.93;;;16.90;99.90;;;;;;4984114;28;20022;-94
2023/07/13 06:11:29;;;;;;;30.13;10.73;;;16.90;99.90;;;;;;5001218;28;20099;-94
2023/07/13 06:13:56;;;;;;;24.80;10.23;;;16.90;99.90;;;;;;5001583;28;20026;-94
2023/07/13 06:16:22;;;;;;;23.85;10.57;;;16.90;99.90;;;;;;5002801;28;20057;-88
2023/07/13 06:18:48;;;;;;;23.45;11.23;;;17.00;99.90;;;;;;4984787;28;20041;-88
2023/07/13 06:21:16;;;;;;;26.67;10.85;;;17.00;99.90;;;;;;4999058;28;20490;-88
2023/07/13 06:23:42;;;;;;;27.92;11.05;;;17.00;99.90;;;;;;4999311;28;20480;-87
2023/07/13 06:26:09;;;;;;;31.48;12.05;;;17.10;99.90;;;;;;5000248;28;20089;-88
2023/07/13 06:28:36;;;;;;;25.35;11.80;;;17.10;99.90;;;;;;5003437;28;20037;-88
2023/07/13 06:31:01;;;;;;;26.40;11.75;;;17.20;99.90;;;;;;5011132;28;20153;-88
2023/07/13 06:33:27;;;;;;;29.48;11.15;;;17.20;99.90;;;;;;5002793;28;20045;-94
2023/07/13 06:35:54;;;;;;;24.98;12.43;;;17.30;99.90;;;;;;4984864;28;20033;-92
2023/07/13 06:38:21;;;;;;;31.58;12.93;;;17.30;99.90;;;;;;4985370;28;20025;-92
2023/07/13 06:40:46;;;;;;;26.27;11.10;;;17.40;99.90;;;;;;4985442;28;20033;-92
2023/07/13 06:43:12;;;;;;;29.55;12.82;;;17.40;99.90;;;;;;5001033;28;20026;-92
2023/07/13 06:45:49;;;;;;;31.05;12.20;;;17.50;99.90;;;;;;4968597;28;20488;-93
2023/07/13 06:48:18;;;;;;;28.50;13.13;;;17.50;99.90;;;;;;5000477;28;20018;-88
2023/07/13 06:50:45;;;;;;;29.35;12.70;;;17.60;99.90;;;;;;4982443;28;20117;-88
2023/07/13 06:53:12;;;;;;;24.33;12.45;;;17.60;99.90;;;;;;5001484;28;20026;-88
2023/07/13 06:55:38;;;;;;;28.85;13.98;;;17.70;99.90;;;;;;4995859;28;20037;-88
2023/07/13 06:58:04;;;;;;;26.48;13.27;;;17.70;99.90;;;;;;5000123;28;20018;-89
2023/07/13 07:00:29;;;;;;;29.98;13.65;;;17.70;99.90;;;;;;4999609;28;20026;-89
2023/07/13 07:02:55;;;;;;;26.52;14.10;;;17.70;99.90;;;;;;5003974;28;20057;-89
2023/07/13 07:05:21;;;;;;;26.80;13.27;;;17.80;99.90;;;;;;4967206;28;20040;-88
2023/07/13 07:07:51;;;;;;;25.42;13.88;;;17.80;99.90;;;;;;4998058;28;20032;-89
2023/07/13 07:10:19;;;;;;;26.17;12.70;;;17.80;99.90;;;;;;5015679;28;20365;-89
2023/07/13 07:12:45;;;;;;;28.50;13.20;;;17.90;99.90;;;;;;4981800;28;20048;-89
2023/07/13 07:15:11;;;;;;;30.38;13.13;;;17.90;99.90;;;;;;4981964;28;20472;-89
2023/07/13 07:17:37;;;;;;;26.52;13.00;;;18.00;99.90;;;;;;4981518;28;20025;-89
2023/07/13 07:20:03;;;;;;;28.42;13.65;;;18.00;99.90;;;;;;4997694;28;20042;-89
2023/07/13 07:22:30;;;;;;;36.17;13.70;;;18.10;99.90;;;;;;4999367;28;20496;-89
2023/07/13 07:24:56;;;;;;;27.45;14.18;;;18.10;99.90;;;;;;4965918;28;20053;-89
2023/07/13 07:27:23;;;;;;;28.42;13.73;;;18.10;99.90;;;;;;5002032;28;20025;-90
2023/07/13 07:29:49;;;;;;;25.65;12.80;;;18.10;99.90;;;;;;4986965;28;20028;-89
2023/07/13 07:32:15;;;;;;;27.08;13.27;;;18.20;99.90;;;;;;5001930;28;20041;-89
2023/07/13 07:34:41;;;;;;;29.45;13.35;;;18.20;99.90;;;;;;4983040;28;20025;-88
2023/07/13 07:37:06;;;;;;;24.90;13.95;;;18.20;99.90;;;;;;4965186;28;20026;-88
2023/07/13 07:39:32;;;;;;;26.90;13.18;;;18.30;99.90;;;;;;4982698;28;20022;-88
2023/07/13 07:41:58;;;;;;;24.98;13.80;;;18.30;99.90;;;;;;4982361;28;20029;-88
2023/07/13 07:44:24;;;;;;;27.17;13.18;;;18.30;99.90;;;;;;5000472;28;20033;-88
2023/07/13 07:46:50;;;;;;;26.17;13.95;;;18.40;99.90;;;;;;4966740;28;20187;-87
2023/07/13 07:49:16;;;;;;;28.50;14.05;;;18.40;99.90;;;;;;4983038;28;20057;-86
2023/07/13 07:51:41;;;;;;;26.15;12.85;;;18.40;99.90;;;;;;4981212;28;20121;-89
2023/07/13 07:54:07;;;;;;;23.45;12.73;;;18.40;99.90;;;;;;4997566;28;20029;-86
2023/07/13 07:56:32;;;;;;;30.42;13.63;;;18.50;99.90;;;;;;4982441;28;20030;-89
2023/07/13 07:58:58;;;;;;;22.65;13.35;;;18.50;99.90;;;;;;4982936;28;20040;-89
2023/07/13 08:01:24;;;;;;;24.13;13.82;;;18.50;99.90;;;;;;4997408;28;20030;-89
2023/07/13 08:03:50;;;;;;;26.38;14.18;;;18.50;99.90;;;;;;4982680;28;20056;-89
2023/07/13 08:06:16;;;;;;;28.95;12.98;;;18.60;99.90;;;;;;4964793;28;20081;-88
2023/07/13 08:08:42;;;;;;;23.15;13.75;;;18.60;99.90;;;;;;4981204;28;20488;-89
2023/07/13 08:11:09;;;;;;;29.50;13.98;;;18.70;99.90;;;;;;4980754;28;20026;-89
2023/07/13 08:13:35;;;;;;;22.35;13.38;;;18.80;99.90;;;;;;4982126;28;20085;-91
2023/07/13 08:16:01;;;;;;;24.17;13.77;;;18.80;99.90;;;;;;4998210;28;20018;-92
2023/07/13 08:18:29;;;;;;;27.20;12.90;;;18.90;99.90;;;;;;4981742;28;20072;-92
2023/07/13 08:20:58;;;;;;;25.65;12.15;;;19.00;99.90;;;;;;4966447;28;20484;-93
2023/07/13 08:23:28;;;;;;;25.60;12.88;;;19.00;99.90;;;;;;4982476;28;20053;-92
2023/07/13 08:25:55;;;;;;;18.58;12.00;;;19.10;99.90;;;;;;4981443;28;20477;-92
2023/07/13 08:28:21;;;;;;;23.85;12.35;;;19.10;99.90;;;;;;4982176;28;20120;-87
2023/07/13 08:30:48;;;;;;;25.05;13.05;;;19.20;99.90;;;;;;4997754;28;20026;-87
2023/07/13 08:33:18;;;;;;;27.02;12.82;;;19.20;99.90;;;;;;4981761;28;20085;-88
2023/07/13 08:35:48;;;;;;;25.63;12.43;;;19.30;99.90;;;;;;4997294;28;20491;-87
2023/07/13 08:38:16;;;;;;;23.30;12.67;;;19.20;99.90;;;;;;4982388;28;20125;-87
2023/07/13 08:40:43;;;;;;;24.42;13.00;;;19.30;99.90;;;;;;4996233;28;20030;-87
2023/07/13 08:43:22;;;;;;;25.20;11.65;;;19.40;99.90;;;;;;4996528;28;20022;-86
2023/07/13 08:45:56;;;;;;;20.02;11.63;;;19.40;99.90;;;;;;4996720;28;20083;-87
2023/07/13 08:48:41;;;;;;;25.13;9.85;;;19.40;99.90;;;;;;4996043;28;20164;-87
2023/07/13 08:51:27;;;;;;;26.83;11.77;;;19.50;99.90;;;;;;4996711;28;20033;-88
2023/07/13 08:54:01;;;;;;;23.23;11.23;;;19.60;99.90;;;;;;4996998;28;20057;-89
2023/07/13 08:56:29;;;;;;;21.88;11.57;;;19.60;99.90;;;;;;4997054;28;20022;-89
2023/07/13 08:59:18;;;;;;;20.35;11.48;;;19.60;99.90;;;;;;4996514;28;20018;-89
2023/07/13 09:01:57;;;;;;;19.83;10.43;;;19.60;99.90;;;;;;4997189;28;20026;-93
2023/07/13 09:04:37;;;;;;;20.10;9.88;;;19.60;99.90;;;;;;4996918;28;20029;-92
2023/07/13 09:07:08;;;;;;;17.38;7.85;;;19.60;99.90;;;;;;4997265;28;20061;-92
2023/07/13 09:10:05;;;;;;;16.52;8.18;;;19.60;99.90;;;;;;4996871;28;20033;-92
2023/07/13 09:12:50;;;;;;;19.13;10.68;;;19.60;99.90;;;;;;4997063;28;20026;-92
2023/07/13 09:15:25;;;;;;;22.98;8.98;;;19.70;99.90;;;;;;4986585;28;20496;-92
2023/07/13 09:17:52;;;;;;;16.70;8.57;;;19.70;99.90;;;;;;4998015;28;20054;-88
2023/07/13 09:20:26;;;;;;;20.40;8.75;;;19.80;99.90;;;;;;5000263;28;20018;-87
2023/07/13 09:22:53;;;;;;;15.05;7.53;;;19.90;99.90;;;;;;5000242;28;20404;-87
2023/07/13 09:25:33;;;;;;;13.45;7.00;;;19.90;99.90;;;;;;5018407;28;20528;-87
2023/07/13 09:28:16;;;;;;;15.95;6.88;;;20.00;99.90;;;;;;5000214;28;20453;-89
2023/07/13 09:31:03;;;;;;;13.80;6.40;;;20.10;99.90;;;;;;5000051;28;20085;-87
2023/07/13 09:33:31;;;;;;;16.85;7.82;;;20.10;99.90;;;;;;5000542;28;20378;-88
2023/07/13 09:36:01;;;;;;;13.45;7.05;;;20.10;99.90;;;;;;5018724;28;20052;-87
2023/07/13 09:38:29;;;;;;;19.90;7.07;;;20.20;99.90;;;;;;5000346;28;20481;-87
2023/07/13 09:41:14;;;;;;;12.82;6.20;;;20.10;99.90;;;;;;5000262;28;20407;-88
2023/07/13 09:44:09;;;;;;;15.50;7.43;;;20.10;99.90;;;;;;5000436;28;20022;-87
2023/07/13 09:46:35;;;;;;;16.60;7.20;;;20.10;99.90;;;;;;5000579;28;20485;-87
2023/07/13 09:49:01;;;;;;;12.32;6.95;;;20.10;99.90;;;;;;4984016;28;20034;-87
2023/07/13 09:51:26;;;;;;;13.00;8.05;;;20.00;99.90;;;;;;4984781;28;20487;-93
2023/07/13 09:53:52;;;;;;;18.50;8.43;;;19.90;99.90;;;;;;4971271;28;20527;-93
2023/07/13 09:56:29;;;;;;;14.10;6.82;;;19.80;99.90;;;;;;4991011;28;20124;-93
2023/07/13 09:58:56;;;;;;;11.35;6.88;;;19.80;99.90;;;;;;5006138;28;20022;-93
2023/07/13 10:01:38;;;;;;;12.38;7.05;;;19.70;99.90;;;;;;4986206;28;20034;-92
2023/07/13 10:04:31;;;;;;;17.67;6.95;;;19.70;99.90;;;;;;4987237;28;20025;-93
2023/07/13 10:07:09;;;;;;;13.63;8.20;;;19.70;99.90;;;;;;5002431;28;20033;-89
2023/07/13 10:09:35;;;;;;;14.85;8.43;;;19.70;99.90;;;;;;5003088;28;20038;-89
2023/07/13 10:12:01;;;;;;;12.70;8.00;;;19.70;99.90;;;;;;4991916;28;20077;-90
2023/07/13 10:14:28;;;;;;;15.38;8.07;;;19.70;99.90;;;;;;4992412;28;20026;-86
2023/07/13 10:17:02;;;;;;;13.77;8.00;;;19.70;99.90;;;;;;4991462;28;20030;-85
2023/07/13 10:19:32;;;;;;;15.85;7.95;;;19.80;99.90;;;;;;4977384;28;20073;-86
2023/07/13 10:22:22;;;;;;;17.45;7.50;;;19.90;99.90;;;;;;4968496;28;20031;-86
2023/07/13 10:24:50;;;;;;;14.88;6.38;;;19.90;99.90;;;;;;4945439;29;20063;-85
2023/07/13 10:27:28;;;;;;;10.88;5.60;;;20.00;99.90;;;;;;4983535;28;20065;-86
2023/07/13 10:30:15;;;;;;;13.98;6.80;;;20.10;99.90;;;;;;4984571;28;20033;-85
2023/07/13 10:32:41;;;;;;;14.23;6.30;;;20.20;99.90;;;;;;4979819;28;20077;-85
2023/07/13 10:35:13;;;;;;;13.13;6.25;;;20.30;99.90;;;;;;4979476;28;20026;-86
2023/07/13 10:37:49;;;;;;;9.75;5.18;;;20.30;99.90;;;;;;4979090;28;20122;-86
2023/07/13 10:40:29;;;;;;;11.35;5.35;;;20.40;99.90;;;;;;4980219;28;20034;-86
2023/07/13 10:42:58;;;;;;;11.48;5.57;;;20.40;99.90;;;;;;4980273;28;20025;-86
2023/07/13 10:45:26;;;;;;;11.90;5.97;;;20.50;99.90;;;;;;4979211;28;20034;-86
2023/07/13 10:48:01;;;;;;;15.05;6.22;;;20.50;99.90;;;;;;4979407;28;20041;-92
2023/07/13 10:50:31;;;;;;;15.57;6.88;;;20.60;99.90;;;;;;4963559;28;20037;-87
2023/07/13 10:53:21;;;;;;;10.82;5.47;;;20.60;99.90;;;;;;4964266;28;20386;-87
2023/07/13 10:55:53;;;;;;;8.75;4.30;;;20.50;99.90;;;;;;4980167;28;20022;-87
2023/07/13 10:58:28;;;;;;;11.52;4.60;;;20.50;99.90;;;;;;4980728;28;20397;-90
2023/07/13 11:01:06;;;;;;;11.52;4.55;;;20.30;99.90;;;;;;4979849;28;20380;-90
2023/07/13 11:03:37;;;;;;;14.65;4.85;;;20.30;99.90;;;;;;4976543;28;20034;-90
2023/07/13 11:06:22;;;;;;;14.82;6.00;;;20.20;99.90;;;;;;4979457;28;20034;-92
2023/07/13 11:08:53;;;;;;;12.80;6.00;;;20.20;99.90;;;;;;4980068;28;20061;-91
2023/07/13 11:11:26;;;;;;;9.52;5.43;;;20.20;99.90;;;;;;4979668;28;20026;-90
2023/07/13 11:14:04;;;;;;;14.20;6.30;;;20.20;99.90;;;;;;4963712;28;20041;-92
2023/07/13 11:16:43;;;;;;;14.45;5.78;;;20.20;99.90;;;;;;4961817;28;20105;-90
2023/07/13 11:19:10;;;;;;;11.63;5.68;;;20.20;99.90;;;;;;4972577;28;20473;-90
2023/07/13 11:22:01;;;;;;;14.73;5.93;;;20.10;99.90;;;;;;4979131;28;20034;-90
2023/07/13 11:24:47;;;;;;;10.15;4.85;;;20.00;99.90;;;;;;4997422;28;20077;-91
2023/07/13 11:27:48;;;;;;;14.20;5.00;;;20.00;99.90;;;;;;4978999;28;20026;-92
2023/07/13 11:30:19;;;;;;;;;;;19.90;99.90;;;;;;4980016;28;20037;-91
2023/07/13 11:32:51;;;;;;;10.30;4.70;;;19.80;99.90;;;;;;4994858;28;20368;-91
2023/07/13 11:35:26;;;;;;;9.00;3.80;;;19.80;99.90;;;;;;4999739;28;20025;-91
2023/07/13 11:37:52;;;;;;;8.90;3.72;;;19.80;99.90;;;;;;4998959;28;20033;-89
2023/07/13 11:40:27;;;;;;;11.82;4.38;;;19.80;99.90;;;;;;4998320;28;20033;-92
2023/07/13 11:42:59;;;;;;;11.52;4.60;;;19.90;99.90;;;;;;5000773;28;20049;-93
2023/07/13 11:45:25;;;;;;;13.52;4.68;;;19.90;99.90;;;;;;5000558;28;20076;-91
2023/07/13 11:47:51;;;;;;;12.75;4.90;;;20.00;99.90;;;;;;4981336;28;20127;-87
2023/07/13 11:50:22;;;;;;;11.50;4.60;;;20.10;99.90;;;;;;4981857;28;20030;-92
2023/07/13 11:52:50;;;;;;;14.98;4.60;;;20.20;99.90;;;;;;4997001;28;20113;-92
2023/07/13 11:55:18;;;;;;;11.02;4.47;;;20.30;99.90;;;;;;4982698;28;20026;-92
2023/07/13 11:57:58;;;;;;;8.00;3.38;;;20.40;99.90;;;;;;4983561;28;20022;-93
2023/07/13 12:00:29;;;;;;;6.60;3.10;;;20.60;99.90;;;;;;5001865;28;20084;-92
2023/07/13 12:02:59;;;;;;;6.95;2.83;;;20.60;99.90;;;;;;4984416;28;20026;-92
2023/07/13 12:05:25;;;;;;;13.57;4.05;;;20.60;99.90;;;;;;4996986;28;20412;-88
2023/07/13 12:07:51;;;;;;;12.40;4.97;;;20.60;99.90;;;;;;5004834;28;20022;-88
2023/07/13 12:10:26;;;;;;;9.20;4.72;;;20.60;99.90;;;;;;4978366;28;20026;-88
2023/07/13 12:13:01;;;;;;;11.23;4.90;;;20.50;99.90;;;;;;4996681;28;20026;-88
2023/07/13 12:15:48;;;;;;;10.00;5.20;;;20.50;99.90;;;;;;4978727;28;20384;-88
2023/07/13 12:18:31;;;;;;;10.15;5.10;;;20.60;99.90;;;;;;4983897;28;20038;-88
2023/07/13 12:20:59;;;;;;;9.82;4.75;;;20.60;99.90;;;;;;5002430;28;20026;-88
2023/07/13 12:23:29;;;;;;;7.82;4.97;;;20.60;99.90;;;;;;4982870;28;20030;-88
2023/07/13 12:25:56;;;;;;;10.77;4.60;;;20.60;99.90;;;;;;4984484;28;20041;-89
2023/07/13 12:28:52;;;;;;;11.88;4.78;;;20.60;99.90;;;;;;4980871;28;20045;-89
2023/07/13 12:31:30;;;;;;;10.10;4.90;;;20.60;99.90;;;;;;4986363;28;20034;-88
2023/07/13 12:34:18;;;;;;;11.40;4.72;;;20.60;99.90;;;;;;5004220;28;20089;-88
2023/07/13 12:36:50;;;;;;;9.38;4.88;;;20.50;99.90;;;;;;4986250;28;20062;-88
2023/07/13 12:39:18;;;;;;;9.68;4.00;;;20.60;99.90;;;;;;4982806;28;20085;-87
2023/07/13 12:41:45;;;;;;;12.35;4.68;;;20.60;99.90;;;;;;4980063;28;20074;-88
2023/07/13 12:44:17;;;;;;;10.95;4.60;;;20.70;99.90;;;;;;4979272;28;20425;-88
2023/07/13 12:47:06;;;;;;;8.15;3.45;;;20.80;99.90;;;;;;4996761;28;20033;-87
2023/07/13 12:49:36;;;;;;;5.70;3.22;;;20.90;99.90;;;;;;4980805;28;20014;-88
2023/07/13 12:52:04;;;;;;;10.77;4.30;;;21.00;99.90;;;;;;4979134;28;20508;-88